Stations météo

Publicité
Vannes/Sene, France (7210): Température de l'air & dewpoint: 22.05.2020 20:00:00 - 28.05.2020 20:00:00 (CEST)Vannes/Sene, France (7210): Vitesse du vent & gusts: 22.05.2020 20:00:00 - 28.05.2020 20:00:00 (CEST)Vannes/Sene, France (7210): Direction du vent: 22.05.2020 20:00:00 - 28.05.2020 20:00:00 (CEST)Vannes/Sene, France (7210): Ensoleillement: 22.05.2020 20:00:00 - 28.05.2020 20:00:00 (CEST)Vannes/Sene, France (7210): Quantités de précipitations: 22.05.2020 20:00:00 - 28.05.2020 20:00:00 (CEST)
Date & Time tt [°C] td [°C] ff [km/h] ff [knt] fx [km/h] fx [knt] dd sd [min] rr [mm]
28.05.2020 20:00:00 26,0 8,9 11 6 29 16 ENE 60 0,0
28.05.2020 19:00:00 26,7 10,0 13 7 32 18 ENE 60 0,0
28.05.2020 18:00:00 26,7 9,5 15 8 31 17 ENE 60 0,0
28.05.2020 17:00:00 27,0 11,1 14 8 36 20 ENE 60 0,0
28.05.2020 16:00:00 26,6 10,7 14 8 32 17 ENE 60 0,0
28.05.2020 15:00:00 26,3 11,2 16 9 36 20 E 60 0,0
28.05.2020 14:00:00 25,2 11,0 18 10 35 19 ENE 60 0,0
28.05.2020 13:00:00 24,1 11,4 16 9 37 20 ENE 60 0,0
28.05.2020 12:00:00 23,2 11,6 15 8 34 18 ENE 60 0,0
28.05.2020 11:00:00 22,0 11,4 15 8 43 23 ENE 60 0,0
28.05.2020 10:00:00 20,3 10,7 17 9 34 18 ENE 60 0,0
28.05.2020 09:00:00 18,9 10,7 15 8 39 21 ENE 60 0,0
28.05.2020 08:00:00 17,6 10,9 13 7 29 16 ENE 60 0,0
28.05.2020 07:00:00 16,2 11,1 10 5 24 13 ENE 1 0,0
28.05.2020 06:00:00 16,4 11,3 9 5 23 13 ENE 0 0,0
28.05.2020 05:00:00 17,1 11,8 9 5 26 14 ENE 0 0,0
28.05.2020 04:00:00 17,1 12,0 9 5 22 12 NE 0 0,0
28.05.2020 03:00:00 17,9 11,9 11 6 22 12 NE 0 0,0
28.05.2020 02:00:00 18,8 12,3 12 7 27 14 NE 0 0,0
28.05.2020 01:00:00 19,5 12,5 13 7 24 13 NE 0 0,0
28.05.2020 00:00:00 20,2 12,7 12 6 29 16 NE 0 0,0
27.05.2020 23:00:00 20,8 13,0 13 7 21 11 NNE 0 0,0
27.05.2020 22:00:00 22,2 12,2 10 5 19 11 NNE 4 0,0
27.05.2020 21:00:00 25,0 11,2 12 7 32 18 NE 57 0,0
27.05.2020 20:00:00 26,5 11,0 14 7 32 18 NE 60 0,0
27.05.2020 19:00:00 27,0 10,2 19 10 40 22 NE 60 0,0
27.05.2020 18:00:00 27,3 10,5 18 10 41 22 NE 60 0,0
27.05.2020 17:00:00 27,4 10,6 15 8 45 24 NE 60 0,0
27.05.2020 16:00:00 27,3 12,1 16 9 - - NE 60 0,0
27.05.2020 15:00:00 26,9 12,2 17 9 35 19 ENE 60 0,0
27.05.2020 14:00:00 25,9 11,3 18 10 36 19 NE 60 0,0
27.05.2020 13:00:00 25,5 11,3 16 9 34 18 ENE 60 0,0
27.05.2020 12:00:00 24,5 11,8 13 7 31 17 ENE 60 0,0
27.05.2020 11:00:00 22,9 11,9 11 6 29 15 ENE 60 0,0
27.05.2020 10:00:00 21,3 11,0 12 7 28 15 ENE 60 0,0
27.05.2020 09:00:00 19,1 10,4 11 6 24 13 NE 60 0,0
27.05.2020 08:00:00 16,7 10,1 11 6 19 11 NE 60 0,0
27.05.2020 07:00:00 14,6 10,0 10 5 18 10 NNE 1 0,0
27.05.2020 06:00:00 14,4 9,6 10 5 18 10 NE 0 0,0
27.05.2020 05:00:00 14,8 9,8 9 5 17 9 NE 0 0,0
27.05.2020 04:00:00 14,9 9,9 10 6 19 10 NE 0 0,0
27.05.2020 03:00:00 15,2 10,2 9 5 16 9 NE 0 0,0
27.05.2020 02:00:00 16,3 10,8 10 5 23 13 NE 0 0,0
27.05.2020 01:00:00 17,2 10,8 12 7 29 16 NNE 0 0,0
27.05.2020 00:00:00 18,2 10,3 16 9 29 15 NNE 0 0,0
26.05.2020 23:00:00 19,2 10,5 16 9 27 15 N 0 0,0
26.05.2020 22:00:00 20,5 11,4 16 9 35 19 N 1 0,0
26.05.2020 21:00:00 22,4 11,8 19 10 40 22 NNE 53 0,0
26.05.2020 20:00:00 24,1 12,4 21 11 40 22 NNE 60 0,0
26.05.2020 19:00:00 25,7 9,5 17 9 38 21 ENE 60 0,0
26.05.2020 18:00:00 25,9 9,3 21 11 39 21 NNE 60 0,0
26.05.2020 17:00:00 25,9 10,1 20 11 36 20 NNE 60 0,0
26.05.2020 16:00:00 25,9 10,5 16 9 39 21 NE 60 0,0
26.05.2020 15:00:00 25,2 11,0 16 8 44 24 ENE 60 0,0
26.05.2020 14:00:00 24,2 10,1 14 8 34 19 NE 60 0,0
26.05.2020 13:00:00 24,1 11,1 13 7 30 16 ENE 53 0,0
26.05.2020 12:00:00 22,7 12,3 11 6 23 12 NE 60 0,0
26.05.2020 11:00:00 21,5 12,3 10 5 21 12 NE 60 0,0
26.05.2020 10:00:00 20,0 12,5 10 5 21 11 NE 60 0,0
26.05.2020 09:00:00 17,5 11,1 11 6 24 13 NE 60 0,0
26.05.2020 08:00:00 15,7 10,9 9 5 20 11 NNE 60 0,0
26.05.2020 07:00:00 13,8 9,8 11 6 18 10 NNE 0 0,0
26.05.2020 06:00:00 13,4 9,8 8 5 15 8 NNE 0 0,0
26.05.2020 05:00:00 13,8 9,6 8 4 16 9 N 0 0,0
26.05.2020 04:00:00 14,4 10,0 9 5 16 9 NNE 0 0,0
26.05.2020 03:00:00 14,9 10,1 9 5 19 10 NNE 0 0,0
26.05.2020 02:00:00 15,5 10,0 10 6 22 12 NE 0 0,0
26.05.2020 01:00:00 16,0 9,9 11 6 23 13 NNE 0 0,0
26.05.2020 00:00:00 16,8 9,2 13 7 23 12 NNE 0 0,0
25.05.2020 23:00:00 18,0 9,6 14 8 29 15 NNE 0 0,0
25.05.2020 22:00:00 19,3 10,3 13 7 33 18 NNE 0 0,0
25.05.2020 21:00:00 21,6 11,3 19 11 35 19 NNE 45 0,0
25.05.2020 20:00:00 23,6 9,9 16 8 32 18 NNE 60 0,0
25.05.2020 19:00:00 24,3 9,5 14 7 28 15 NNE 60 0,0
25.05.2020 18:00:00 24,5 9,6 15 8 31 17 NE 60 0,0
25.05.2020 17:00:00 24,5 9,6 9 5 37 20 NE 60 0,0
25.05.2020 16:00:00 24,0 8,4 14 8 33 18 NE 60 0,0
25.05.2020 15:00:00 23,6 8,8 13 7 31 17 NE 60 0,0
25.05.2020 14:00:00 23,0 9,4 12 6 30 16 NE 60 0,0
25.05.2020 13:00:00 21,4 8,0 11 6 30 16 NE 60 0,0
25.05.2020 12:00:00 20,6 9,2 13 7 28 15 ENE 60 0,0
25.05.2020 11:00:00 18,9 9,4 10 5 24 13 ENE 60 0,0
25.05.2020 10:00:00 17,4 9,8 12 6 28 15 ENE 60 0,0
25.05.2020 09:00:00 16,1 10,0 10 5 20 11 ENE 60 0,0
25.05.2020 08:00:00 13,8 10,0 7 4 18 10 NE 60 0,0
25.05.2020 07:00:00 11,7 9,3 8 5 20 11 NE 0 0,0
25.05.2020 06:00:00 11,6 8,8 9 5 20 11 NE 0 0,0
25.05.2020 05:00:00 11,7 8,4 8 4 19 11 NNE 0 0,0
25.05.2020 04:00:00 12,0 8,1 11 6 21 12 NNE 0 0,0
25.05.2020 03:00:00 11,6 8,4 8 5 12 7 NNE 0 0,0
25.05.2020 02:00:00 12,4 8,1 8 5 16 9 NNE 0 0,0
25.05.2020 01:00:00 13,4 8,7 10 5 19 10 NNE 0 0,0
25.05.2020 00:00:00 14,5 9,3 9 5 19 11 NNE 0 0,0
24.05.2020 23:00:00 15,2 10,0 9 5 15 8 NNE 0 0,0
24.05.2020 22:00:00 15,5 9,6 5 3 11 6 NW 0 0,0
24.05.2020 21:00:00 18,2 10,1 6 4 18 10 WNW 46 0,0
24.05.2020 20:00:00 19,6 10,0 9 5 25 13 W 60 0,0
24.05.2020 19:00:00 19,5 10,8 12 7 26 14 WSW 42 0,0
24.05.2020 18:00:00 20,0 9,8 11 6 28 15 WSW 58 0,0
24.05.2020 17:00:00 20,4 9,9 14 7 26 14 WSW 60 0,0
24.05.2020 16:00:00 20,4 10,2 11 6 25 14 WSW 60 0,0
24.05.2020 15:00:00 19,5 10,2 12 7 29 15 WSW 60 0,0
24.05.2020 14:00:00 19,9 6,6 8 5 19 10 ESE 60 0,0
24.05.2020 13:00:00 18,6 6,7 6 3 17 9 WSW 60 0,0
24.05.2020 12:00:00 17,7 6,2 3 2 14 8 WNW 60 0,0
24.05.2020 11:00:00 16,0 7,0 7 4 16 9 N 60 0,0
24.05.2020 10:00:00 15,0 8,7 8 5 18 10 NNW 60 0,0
24.05.2020 09:00:00 13,2 9,4 10 5 14 8 N 60 0,0
24.05.2020 08:00:00 9,6 9,3 4 2 6 4 N 56 0,0
24.05.2020 07:00:00 6,1 5,8 2 1 6 3 N 0 0,0
24.05.2020 06:00:00 6,2 5,8 3 2 5 3 NNE 0 0,0
24.05.2020 05:00:00 7,3 6,9 3 2 8 4 N 0 0,0
24.05.2020 04:00:00 7,6 6,4 4 2 10 5 N 0 0,0
24.05.2020 03:00:00 9,8 7,4 7 4 14 8 NNW 0 0,0
24.05.2020 02:00:00 10,8 7,7 9 5 15 8 NNW 0 0,0
24.05.2020 01:00:00 10,8 8,9 7 4 16 8 WNW 0 0,0
24.05.2020 00:00:00 11,7 8,5 7 4 21 11 WNW 0 0,0
23.05.2020 23:00:00 13,2 9,3 9 5 26 14 WNW 0 0,0
23.05.2020 22:00:00 13,8 9,0 10 5 30 16 W 4 0,0
23.05.2020 21:00:00 15,4 8,4 12 6 33 18 W 60 0,0
23.05.2020 20:00:00 16,3 9,0 18 10 40 22 W 60 0,0
23.05.2020 19:00:00 17,1 10,7 21 12 44 24 WSW 60 0,0
23.05.2020 18:00:00 17,7 10,3 22 12 45 24 WSW 60 0,0
23.05.2020 17:00:00 18,2 10,8 20 11 47 25 WSW 60 0,0
23.05.2020 16:00:00 18,3 10,6 22 12 47 25 WSW 60 0,0
23.05.2020 15:00:00 18,2 11,0 22 12 49 27 WSW 60 0,0
23.05.2020 14:00:00 18,6 10,7 18 10 40 22 WSW 60 0,0
23.05.2020 13:00:00 18,4 10,0 16 9 39 21 WSW 58 0,0
23.05.2020 12:00:00 18,0 8,0 16 8 39 21 W 60 0,0
23.05.2020 11:00:00 17,4 9,3 13 7 30 16 W 60 0,0
23.05.2020 10:00:00 16,4 9,3 13 7 27 15 W 50 0,0
23.05.2020 09:00:00 15,3 10,3 10 5 23 12 WNW 46 0,0
23.05.2020 08:00:00 13,2 10,0 6 3 21 11 WNW 0 0,0
23.05.2020 07:00:00 13,3 9,5 8 4 23 13 W 0 0,0
23.05.2020 06:00:00 13,7 8,7 13 7 38 21 W 0 0,0
23.05.2020 05:00:00 13,8 8,6 14 8 33 18 WSW 0 0,0
23.05.2020 04:00:00 12,5 8,4 10 6 29 16 WSW 0 0,4
23.05.2020 03:00:00 14,2 10,6 10 5 22 12 W 0 0,0
23.05.2020 02:00:00 13,8 10,2 6 3 23 13 WNW 0 0,0
23.05.2020 01:00:00 14,4 10,6 9 5 24 13 W 0 0,0
23.05.2020 00:00:00 14,5 10,5 9 5 29 16 W 0 0,0
22.05.2020 23:00:00 14,7 10,5 11 6 27 14 W 0 0,0
22.05.2020 22:00:00 15,1 10,5 11 6 29 16 W 0 0,0
22.05.2020 21:00:00 15,4 10,2 11 6 32 18 W 0 0,0
22.05.2020 20:00:00 15,8 10,5 13 7 34 19 W 0 0,0

tt = Température de l'air
td = dewpoint
ff = Vitesse du vent
fx = gusts
dd = Direction du vent
sd = Ensoleillement
rr = Quantités de précipitations

stations d'obs. à proximité